createdAt,value
2018-10-11T00:01:34.465Z,51.54
2018-10-11T00:04:27.320Z,51.55
2018-10-11T00:06:57.305Z,51.12
2018-10-11T00:09:27.337Z,51.26
2018-10-11T00:11:57.329Z,51.27
2018-10-11T00:14:27.427Z,50.61
2018-10-11T00:16:57.319Z,51.08
2018-10-11T00:19:27.365Z,50.79
2018-10-11T00:21:57.847Z,50.62
2018-10-11T00:24:27.402Z,50.59
2018-10-11T00:26:57.329Z,50.15
2018-10-11T00:29:27.370Z,50.05
2018-10-11T00:31:57.325Z,50.31
2018-10-11T00:34:27.318Z,50.70
2018-10-11T00:36:57.318Z,50.51
2018-10-11T00:39:27.332Z,50.48
2018-10-11T00:41:57.318Z,50.85
2018-10-11T00:44:27.328Z,50.42
2018-10-11T00:46:57.292Z,50.67
2018-10-11T00:49:27.398Z,50.84
2018-10-11T00:51:57.330Z,50.71
2018-10-11T00:54:27.314Z,50.32
2018-10-11T00:56:57.310Z,50.63
2018-10-11T00:59:27.338Z,50.85
2018-10-11T01:01:57.324Z,50.70
2018-10-11T01:04:27.333Z,50.64
2018-10-11T01:06:57.305Z,50.91
2018-10-11T01:09:27.347Z,50.98
2018-10-11T01:11:57.315Z,50.88
2018-10-11T01:14:27.309Z,50.63
2018-10-11T01:16:57.320Z,50.82
2018-10-11T01:19:27.364Z,50.19
2018-10-11T01:21:57.362Z,50.58
2018-10-11T01:24:27.327Z,50.77
2018-10-11T01:26:57.386Z,50.79
2018-10-11T01:29:27.365Z,50.91
2018-10-11T01:31:57.322Z,51.02
2018-10-11T01:34:27.337Z,50.73
2018-10-11T01:36:57.317Z,50.77
2018-10-11T01:39:27.794Z,50.72
2018-10-11T01:41:57.415Z,50.80
2018-10-11T01:44:27.419Z,50.83
2018-10-11T01:46:58.316Z,51.00
2018-10-11T01:49:28.426Z,50.66
2018-10-11T01:51:58.314Z,51.02
2018-10-11T01:54:28.314Z,50.49
2018-10-11T01:56:58.320Z,50.23
2018-10-11T01:59:28.321Z,50.40
2018-10-11T02:01:58.322Z,50.19
2018-10-11T02:04:28.402Z,49.77
2018-10-11T02:06:58.315Z,50.00
2018-10-11T02:09:28.389Z,49.60
2018-10-11T02:11:58.313Z,49.73
2018-10-11T02:14:28.353Z,49.92
2018-10-11T02:16:58.313Z,49.97
2018-10-11T02:19:28.305Z,50.11
2018-10-11T02:21:58.312Z,49.81
2018-10-11T02:24:30.205Z,50.32
2018-10-11T02:27:01.329Z,49.90
2018-10-11T02:29:31.364Z,50.13
2018-10-11T02:32:01.387Z,49.72
2018-10-11T02:34:31.320Z,49.89
2018-10-11T02:37:01.333Z,49.74
2018-10-11T02:39:31.326Z,49.77
2018-10-11T02:42:01.350Z,49.61
2018-10-11T02:44:31.323Z,49.27
2018-10-11T02:47:01.313Z,49.22
2018-10-11T02:49:31.442Z,49.40
2018-10-11T02:52:01.342Z,49.34
2018-10-11T02:54:31.340Z,49.31
2018-10-11T02:57:04.324Z,49.00
2018-10-11T02:59:37.176Z,49.11
2018-10-11T03:02:11.311Z,49.05
2018-10-11T03:04:41.503Z,49.23
2018-10-11T03:07:12.296Z,48.82
2018-10-11T03:09:43.305Z,48.65
2018-10-11T03:12:13.539Z,48.38
2018-10-11T03:14:43.319Z,48.23
2018-10-11T03:17:13.309Z,48.50
2018-10-11T03:19:44.007Z,48.35
2018-10-11T03:22:14.238Z,48.44
2018-10-11T03:24:44.321Z,48.20
2018-10-11T03:27:14.327Z,47.92
2018-10-11T03:29:44.334Z,48.15
2018-10-11T03:32:14.386Z,48.18
2018-10-11T03:34:44.329Z,48.71
2018-10-11T03:37:14.380Z,48.03
2018-10-11T03:39:44.322Z,48.35
2018-10-11T03:42:14.418Z,48.71
2018-10-11T03:44:45.337Z,48.59
2018-10-11T03:49:21.320Z,48.39
2018-10-11T03:51:51.318Z,48.29
2018-10-11T03:54:21.319Z,48.35
2018-10-11T03:56:51.330Z,48.38
2018-10-11T03:59:21.378Z,48.48
2018-10-11T04:01:51.315Z,48.22
2018-10-11T04:04:21.317Z,47.79
2018-10-11T04:06:51.794Z,47.83
2018-10-11T04:09:21.502Z,47.73
2018-10-11T04:11:51.340Z,47.53
2018-10-11T04:14:21.286Z,47.56
2018-10-11T04:16:51.317Z,47.98
2018-10-11T04:19:21.316Z,47.54
2018-10-11T04:21:51.309Z,46.99
2018-10-11T04:24:21.294Z,47.42
2018-10-11T04:26:51.316Z,47.71
2018-10-11T04:29:21.344Z,47.54
2018-10-11T04:31:51.352Z,47.53
2018-10-11T04:34:25.270Z,47.46
2018-10-11T04:36:54.213Z,47.70
2018-10-11T04:39:24.317Z,47.75
2018-10-11T04:41:54.311Z,47.56
2018-10-11T04:44:24.352Z,47.08
2018-10-11T04:46:54.309Z,47.22
2018-10-11T04:49:24.310Z,47.38
2018-10-11T04:51:54.324Z,47.32
2018-10-11T04:54:24.324Z,47.44
2018-10-11T04:56:54.322Z,47.44
2018-10-11T04:59:24.319Z,47.27
2018-10-11T05:01:54.319Z,47.72
2018-10-11T05:04:24.290Z,47.09
2018-10-11T05:06:54.345Z,47.31
2018-10-11T05:09:24.356Z,46.75
2018-10-11T05:11:56.339Z,47.63
2018-10-11T05:14:26.393Z,47.20
2018-10-11T05:16:57.392Z,47.47
2018-10-11T05:19:31.460Z,47.30
2018-10-11T05:22:01.421Z,47.51
2018-10-11T05:24:31.322Z,47.22
2018-10-11T05:27:01.318Z,47.79
2018-10-11T05:29:31.343Z,48.17
2018-10-11T05:32:01.777Z,48.06
2018-10-11T05:34:32.078Z,48.44
2018-10-11T05:37:02.311Z,48.69
2018-10-11T05:39:32.321Z,49.00
2018-10-11T05:42:02.409Z,49.13
2018-10-11T05:44:32.595Z,48.99
2018-10-11T05:47:02.493Z,49.78
2018-10-11T05:49:32.419Z,49.87
2018-10-11T05:52:02.501Z,49.52
2018-10-11T05:54:32.368Z,48.95
2018-10-11T05:57:02.332Z,48.54
2018-10-11T05:59:32.317Z,48.36
2018-10-11T06:02:02.313Z,48.02
2018-10-11T06:04:32.313Z,47.02
2018-10-11T06:07:02.405Z,46.83
2018-10-11T06:09:34.022Z,46.96
2018-10-11T06:12:04.249Z,46.73
2018-10-11T06:14:34.574Z,46.25
2018-10-11T06:17:04.442Z,46.06
2018-10-11T06:19:34.393Z,45.65
2018-10-11T06:22:04.339Z,45.94
2018-10-11T06:24:34.317Z,45.51
2018-10-11T06:27:04.342Z,45.37
2018-10-11T06:29:34.396Z,44.86
2018-10-11T06:32:05.395Z,44.24
2018-10-11T06:34:35.325Z,44.56
2018-10-11T06:37:05.429Z,44.14
2018-10-11T06:39:35.323Z,43.45
2018-10-11T06:42:05.364Z,43.66
2018-10-11T06:44:35.384Z,43.10
2018-10-11T06:47:05.478Z,43.01
2018-10-11T06:49:36.948Z,43.14
2018-10-11T06:52:07.193Z,42.70
2018-10-11T06:54:37.297Z,42.61
2018-10-11T06:57:06.302Z,42.91
2018-10-11T06:59:36.313Z,42.49
2018-10-11T07:02:06.431Z,41.92
2018-10-11T07:04:37.332Z,41.57
2018-10-11T07:07:07.567Z,41.32
2018-10-11T07:09:37.352Z,41.13
2018-10-11T07:12:07.330Z,40.60
2018-10-11T07:14:38.322Z,40.48
2018-10-11T07:17:08.326Z,39.72
2018-10-11T07:19:38.317Z,39.88
2018-10-11T07:22:08.401Z,39.32
2018-10-11T07:24:38.328Z,38.86
2018-10-11T07:27:08.326Z,38.83
2018-10-11T07:29:38.437Z,38.95
2018-10-11T07:32:08.322Z,37.48
2018-10-11T07:34:38.360Z,38.32
2018-10-11T07:37:08.330Z,38.32
2018-10-11T07:39:38.330Z,37.48
2018-10-11T07:42:08.381Z,35.89
2018-10-11T07:44:38.628Z,35.41
2018-10-11T07:47:08.383Z,36.03
2018-10-11T07:49:38.798Z,35.79
2018-10-11T07:52:08.402Z,35.01
2018-10-11T07:54:38.330Z,33.97
2018-10-11T07:57:08.488Z,33.61
2018-10-11T07:59:38.328Z,33.75
2018-10-11T08:02:08.345Z,33.10
2018-10-11T08:04:38.333Z,32.98
2018-10-11T08:07:08.456Z,32.20
2018-10-11T08:09:38.328Z,31.00
2018-10-11T08:12:08.468Z,29.16
2018-10-11T08:14:38.332Z,26.79
2018-10-11T08:17:08.787Z,25.17
2018-10-11T08:19:38.394Z,22.51
2018-10-11T08:22:08.384Z,20.92
2018-10-11T08:24:38.434Z,19.79
2018-10-11T08:27:08.554Z,19.47
2018-10-11T08:29:38.418Z,19.07
2018-10-11T08:32:08.589Z,18.25
2018-10-11T08:34:39.323Z,18.35
2018-10-11T08:37:09.368Z,18.22
2018-10-11T08:39:39.393Z,17.34
2018-10-11T08:42:09.431Z,18.18
2018-10-11T08:44:40.342Z,17.37
2018-10-11T08:47:10.338Z,17.79
2018-10-11T08:49:40.460Z,17.35
2018-10-11T08:52:10.330Z,17.26
2018-10-11T08:54:45.521Z,17.29
2018-10-11T08:57:15.425Z,17.27
2018-10-11T08:59:45.498Z,17.50
2018-10-11T09:02:15.333Z,17.81
2018-10-11T09:04:45.594Z,17.45
2018-10-11T09:07:15.337Z,17.66
2018-10-11T09:09:53.437Z,17.75
2018-10-11T09:12:16.334Z,18.62
2018-10-11T09:14:46.335Z,18.83
2018-10-11T09:17:16.357Z,18.89
2018-10-11T09:19:46.324Z,18.18
2018-10-11T09:22:16.322Z,18.81
2018-10-11T09:24:46.334Z,19.41
2018-10-11T09:27:16.325Z,19.52
2018-10-11T09:29:46.328Z,20.80
2018-10-11T09:32:16.333Z,20.89
2018-10-11T09:34:46.296Z,20.81
2018-10-11T09:37:16.322Z,20.75
2018-10-11T09:39:46.326Z,21.03
2018-10-11T09:42:17.025Z,20.82
2018-10-11T09:44:47.189Z,21.13
2018-10-11T09:47:17.291Z,20.46
2018-10-11T09:49:47.337Z,20.91
2018-10-11T09:52:17.354Z,20.69
2018-10-11T09:54:47.370Z,21.54
2018-10-11T09:57:19.289Z,21.89
2018-10-11T09:59:49.294Z,22.31
2018-10-11T10:02:19.337Z,22.85
2018-10-11T10:04:51.333Z,22.95
2018-10-11T10:07:21.338Z,22.53
2018-10-11T10:09:51.370Z,22.68
2018-10-11T10:12:22.018Z,22.23
2018-10-11T10:14:52.249Z,21.84
2018-10-11T10:17:23.456Z,21.81
2018-10-11T10:19:53.331Z,21.64
2018-10-11T10:22:23.339Z,20.61
2018-10-11T10:24:53.333Z,21.45
2018-10-11T10:27:23.452Z,21.61
2018-10-11T10:29:53.457Z,21.04
2018-10-11T10:32:23.365Z,20.91
2018-10-11T10:34:53.334Z,21.22
2018-10-11T10:37:23.350Z,20.86
2018-10-11T10:39:54.355Z,20.50
2018-10-11T10:42:24.334Z,20.75
2018-10-11T10:44:54.332Z,20.93
2018-10-11T10:47:24.461Z,19.86
2018-10-11T10:49:54.301Z,19.28
2018-10-11T10:52:24.327Z,19.90
2018-10-11T10:54:54.335Z,19.27
2018-10-11T10:57:24.334Z,18.53
2018-10-11T10:59:54.326Z,17.57
2018-10-11T11:02:24.332Z,17.17
2018-10-11T11:04:54.327Z,15.86
2018-10-11T11:07:24.445Z,15.75
2018-10-11T11:09:54.318Z,15.02
2018-10-11T11:12:24.325Z,14.15
2018-10-11T11:14:53.983Z,13.77
2018-10-11T11:17:24.191Z,13.89
2018-10-11T11:19:52.928Z,13.23
2018-10-11T11:22:22.489Z,12.68
2018-10-11T11:24:52.356Z,12.65
2018-10-11T11:27:22.069Z,12.11
2018-10-11T11:29:51.536Z,12.24
2018-10-11T11:32:21.340Z,11.25
2018-10-11T11:34:51.193Z,11.19
2018-10-11T11:37:20.035Z,11.01
2018-10-11T11:39:50.004Z,11.02
2018-10-11T11:42:18.941Z,11.42
2018-10-11T11:44:48.362Z,11.03
2018-10-11T11:47:17.990Z,11.07
2018-10-11T11:49:47.404Z,11.01
2018-10-11T11:52:16.978Z,10.63
2018-10-11T11:54:47.012Z,10.45
2018-10-11T11:57:16.976Z,10.15
2018-10-11T11:59:46.411Z,10.65
2018-10-11T12:02:16.294Z,10.41
2018-10-11T12:04:46.328Z,10.03
2018-10-11T12:07:15.789Z,10.18
2018-10-11T12:09:45.357Z,9.99
2018-10-11T12:13:13.475Z,9.96
2018-10-11T12:15:44.263Z,9.71
2018-10-11T12:18:14.328Z,9.98
2018-10-11T12:20:44.015Z,9.88
2018-10-11T12:23:14.277Z,10.01
2018-10-11T12:25:43.566Z,9.93
2018-10-11T12:28:13.379Z,10.29
2018-10-11T12:30:43.315Z,10.82
2018-10-11T12:33:13.193Z,10.71
2018-10-11T12:35:41.923Z,10.51
2018-10-11T12:38:11.481Z,10.90
2018-10-11T12:40:41.387Z,10.48
2018-10-11T12:43:11.325Z,10.74
2018-10-11T12:45:41.667Z,10.92
2018-10-11T12:48:11.280Z,10.84
2018-10-11T12:50:40.565Z,10.66
2018-10-11T12:53:10.318Z,10.34
2018-10-11T12:55:40.206Z,10.59
2018-10-11T12:58:08.949Z,10.50
2018-10-11T13:00:38.386Z,11.06
2018-10-11T13:03:08.073Z,10.42
2018-10-11T13:05:37.409Z,10.93
2018-10-11T13:08:06.882Z,10.35
2018-10-11T13:10:36.326Z,10.44
2018-10-11T13:13:06.120Z,10.07
2018-10-11T13:15:35.386Z,10.95
2018-10-11T13:18:05.341Z,10.75
2018-10-11T13:20:35.027Z,10.42
2018-10-11T13:23:06.439Z,10.41
2018-10-11T13:25:35.192Z,10.62
2018-10-11T13:28:03.875Z,11.04
2018-10-11T13:30:33.512Z,10.96
2018-10-11T13:33:03.332Z,10.29
2018-10-11T13:35:33.094Z,11.85
2018-10-11T13:38:03.026Z,11.98
2018-10-11T13:40:32.660Z,12.98
2018-10-11T13:43:02.365Z,13.11
2018-10-11T13:45:32.323Z,13.31
2018-10-11T13:48:02.389Z,14.59
2018-10-11T13:50:32.370Z,15.53
2018-10-11T13:53:02.108Z,17.25
2018-10-11T13:55:31.999Z,17.79
2018-10-11T13:58:02.033Z,18.03
2018-10-11T14:00:32.073Z,18.66
2018-10-11T14:03:02.327Z,19.07
2018-10-11T14:05:32.330Z,19.15
2018-10-11T14:08:02.326Z,19.58
2018-10-11T14:10:32.329Z,20.89
2018-10-11T14:13:02.329Z,21.31
2018-10-11T14:15:32.326Z,22.08
2018-10-11T14:18:07.629Z,22.03
2018-10-11T14:20:32.325Z,22.30
2018-10-11T14:23:02.325Z,22.66
2018-10-11T14:25:32.329Z,22.75
2018-10-11T14:28:02.387Z,23.38
2018-10-11T14:30:32.327Z,23.09
2018-10-11T14:33:02.339Z,22.90
2018-10-11T14:35:33.329Z,23.07
2018-10-11T14:38:03.353Z,23.23
2018-10-11T14:40:33.333Z,23.30
2018-10-11T14:43:04.341Z,23.50
2018-10-11T14:45:35.324Z,23.15
2018-10-11T14:48:05.498Z,23.07
2018-10-11T14:50:35.339Z,22.87
2018-10-11T14:53:06.397Z,22.93
2018-10-11T14:55:36.402Z,22.99
2018-10-11T14:58:06.489Z,23.13
2018-10-11T15:00:36.337Z,23.08
2018-10-11T15:03:06.309Z,22.68
2018-10-11T15:05:36.395Z,22.45
2018-10-11T15:08:06.329Z,22.20
2018-10-11T15:10:36.281Z,22.58
2018-10-11T15:13:11.959Z,21.66
2018-10-11T15:15:41.681Z,20.27
2018-10-11T15:18:11.381Z,20.48
2018-10-11T15:20:41.236Z,21.77
2018-10-11T15:23:11.245Z,22.12
2018-10-11T15:25:41.014Z,22.56
2018-10-11T15:28:10.398Z,23.15
2018-10-11T15:30:40.259Z,23.31
2018-10-11T15:33:10.022Z,23.84
2018-10-11T15:35:39.391Z,23.92
2018-10-11T15:38:09.235Z,24.01
2018-10-11T15:40:39.179Z,24.58
2018-10-11T15:43:08.830Z,24.58
2018-10-11T15:45:38.300Z,25.03
2018-10-11T15:48:08.331Z,25.10
2018-10-11T15:50:38.175Z,25.01
2018-10-11T15:53:07.789Z,25.15
2018-10-11T15:55:37.320Z,25.27
2018-10-11T15:58:07.209Z,25.56
2018-10-11T16:00:35.599Z,25.22
2018-10-11T16:03:05.348Z,25.94
2018-10-11T16:05:35.332Z,25.68
2018-10-11T16:08:05.272Z,26.21
2018-10-11T16:10:35.201Z,26.31
2018-10-11T16:13:04.809Z,26.38
2018-10-11T16:15:34.306Z,27.16
2018-10-11T16:18:04.479Z,27.13
2018-10-11T16:20:34.415Z,27.75
2018-10-11T16:23:04.572Z,28.31
2018-10-11T16:25:34.576Z,27.61
2018-10-11T16:28:04.342Z,28.60
2018-10-11T16:30:34.912Z,28.54
2018-10-11T16:33:05.387Z,27.97
2018-10-11T16:36:21.633Z,27.87
2018-10-11T16:38:51.449Z,27.57
2018-10-11T16:41:21.880Z,27.55
2018-10-11T16:43:52.334Z,27.67
2018-10-11T16:46:22.889Z,28.85
2018-10-11T16:48:53.461Z,29.51
2018-10-11T16:51:24.241Z,29.37
2018-10-11T16:53:57.627Z,29.86
2018-10-11T16:56:27.302Z,30.28
2018-10-11T16:58:57.180Z,28.54
2018-10-11T17:01:27.077Z,28.30
2018-10-11T17:03:56.986Z,28.22
2018-10-11T17:06:25.953Z,28.28
2018-10-11T17:08:55.384Z,28.53
2018-10-11T17:11:25.176Z,28.71
2018-10-11T17:13:54.675Z,28.31
2018-10-11T17:16:24.316Z,28.61
2018-10-11T17:18:54.191Z,28.82
2018-10-11T17:21:23.794Z,28.78
2018-10-11T17:23:53.415Z,29.26
2018-10-11T17:26:23.193Z,28.99
2018-10-11T17:28:53.222Z,29.21
2018-10-11T17:31:22.798Z,29.46
2018-10-11T17:33:54.956Z,29.46
2018-10-11T17:36:24.446Z,29.36
2018-10-11T17:38:54.202Z,30.13
2018-10-11T17:41:26.220Z,29.84
2018-10-11T17:43:55.588Z,30.22
2018-10-11T17:46:27.931Z,30.24
2018-10-11T17:48:57.420Z,30.51
2018-10-11T17:51:27.194Z,30.98
2018-10-11T17:53:56.785Z,30.50
2018-10-11T17:56:26.339Z,31.00
2018-10-11T17:58:56.184Z,31.20
2018-10-11T18:01:25.889Z,31.19
2018-10-11T18:03:58.945Z,31.23
2018-10-11T18:06:29.317Z,31.33
2018-10-11T18:09:00.317Z,31.62
2018-10-11T18:11:30.184Z,31.51
2018-10-11T18:13:59.795Z,31.76
2018-10-11T18:16:30.728Z,31.90
2018-10-11T18:19:00.315Z,32.11
2018-10-11T18:21:30.426Z,32.12
2018-10-11T18:24:00.317Z,32.55
2018-10-11T18:26:30.174Z,32.67
2018-10-11T18:29:00.164Z,33.06
2018-10-11T18:31:30.197Z,33.03
2018-10-11T18:33:59.792Z,33.35
2018-10-11T18:36:29.434Z,34.28
2018-10-11T18:38:59.176Z,34.10
2018-10-11T18:41:28.782Z,33.62
2018-10-11T18:43:58.332Z,34.31
2018-10-11T18:46:27.960Z,35.26
2018-10-11T18:48:57.428Z,35.29
2018-10-11T18:51:27.195Z,35.62
2018-10-11T18:53:57.002Z,36.39
2018-10-11T18:56:26.409Z,36.09
2018-10-11T18:58:56.230Z,35.27
2018-10-11T19:01:26.001Z,35.21
2018-10-11T19:03:55.402Z,34.93
2018-10-11T19:06:25.186Z,34.84
2018-10-11T19:08:55.180Z,34.80
2018-10-11T19:11:25.283Z,34.59
2018-10-11T19:13:54.981Z,34.95
2018-10-11T19:16:24.398Z,34.84
2018-10-11T19:18:54.212Z,34.64
2018-10-11T19:22:53.477Z,35.05
2018-10-11T19:25:23.236Z,34.71
2018-10-11T19:27:52.787Z,34.92
2018-10-11T19:30:22.332Z,34.88
2018-10-11T19:32:52.170Z,35.08
2018-10-11T19:35:21.775Z,35.20
2018-10-11T19:37:51.441Z,35.16
2018-10-11T19:40:21.197Z,35.78
2018-10-11T19:42:50.777Z,35.62
2018-10-11T19:45:22.377Z,35.61
2018-10-11T19:47:52.186Z,35.94
2018-10-11T19:50:25.180Z,35.93
2018-10-11T19:52:55.167Z,36.05
2018-10-11T19:55:24.790Z,36.44
2018-10-11T19:58:03.799Z,36.58
2018-10-11T20:00:33.370Z,36.92
2018-10-11T20:03:03.192Z,37.11
2018-10-11T20:05:32.819Z,37.43
2018-10-11T20:08:02.439Z,37.72
2018-10-11T20:10:32.244Z,37.77
2018-10-11T20:13:01.683Z,37.67
2018-10-11T20:15:31.294Z,38.11
2018-10-11T20:18:03.902Z,38.20
2018-10-11T20:20:31.301Z,38.45
2018-10-11T20:23:01.220Z,38.07
2018-10-11T20:25:30.742Z,38.41
2018-10-11T20:28:00.314Z,38.94
2018-10-11T20:30:30.181Z,38.90
2018-10-11T20:32:59.980Z,39.65
2018-10-11T20:35:29.361Z,39.20
2018-10-11T20:37:59.187Z,39.53
2018-10-11T20:40:28.663Z,39.97
2018-10-11T20:42:58.315Z,39.52
2018-10-11T20:45:28.253Z,39.86
2018-10-11T20:47:58.316Z,40.02
2018-10-11T20:50:28.170Z,40.47
2018-10-11T20:52:57.817Z,40.73
2018-10-11T20:55:27.346Z,40.90
2018-10-11T20:57:57.201Z,40.86
2018-10-11T21:00:26.802Z,40.94
2018-10-11T21:02:56.325Z,41.06
2018-10-11T21:05:26.177Z,41.21
2018-10-11T21:07:55.669Z,41.65
2018-10-11T21:10:25.575Z,41.52
2018-10-11T21:12:55.293Z,41.57
2018-10-11T21:15:25.015Z,41.25
2018-10-11T21:17:54.373Z,41.26
2018-10-11T21:20:24.319Z,41.78
2018-10-11T21:22:54.241Z,41.54
2018-10-11T21:25:22.861Z,41.64
2018-10-11T21:27:52.855Z,41.65
2018-10-11T21:30:22.976Z,41.38
2018-10-11T21:32:52.403Z,41.46
2018-10-11T21:35:22.198Z,41.76
2018-10-11T21:37:52.311Z,42.19
2018-10-11T21:40:22.400Z,41.99
2018-10-11T21:42:52.365Z,41.99
2018-10-11T21:45:22.345Z,42.36
2018-10-11T21:47:52.280Z,42.25
2018-10-11T21:50:22.364Z,42.28
2018-10-11T21:52:52.334Z,42.17
2018-10-11T21:55:22.375Z,41.91
2018-10-11T21:57:53.335Z,41.89
2018-10-11T22:00:28.257Z,41.98
2018-10-11T22:02:57.727Z,42.13
2018-10-11T22:05:27.719Z,42.04
2018-10-11T22:07:57.299Z,42.10
2018-10-11T22:10:27.179Z,41.94
2018-10-11T22:12:56.986Z,42.11
2018-10-11T22:15:26.463Z,42.47
2018-10-11T22:17:56.243Z,42.95
2018-10-11T22:20:24.706Z,42.75
2018-10-11T22:22:54.317Z,43.08
2018-10-11T22:25:24.388Z,42.64
2018-10-11T22:27:54.534Z,42.74
2018-10-11T22:30:24.261Z,42.72
2018-10-11T22:32:53.993Z,43.08
2018-10-11T22:35:24.536Z,42.90
2018-10-11T22:37:59.988Z,43.24
2018-10-11T22:40:29.573Z,43.28
2018-10-11T22:42:59.251Z,43.39
2018-10-11T22:45:28.219Z,43.48
2018-10-11T22:47:58.243Z,43.71
2018-10-11T22:50:28.828Z,43.26
2018-10-11T22:52:58.633Z,43.54
2018-10-11T22:55:31.077Z,43.79
2018-10-11T22:58:01.359Z,43.38
2018-10-11T23:00:31.345Z,43.54
2018-10-11T23:03:01.191Z,43.52
2018-10-11T23:05:30.987Z,43.54
2018-10-11T23:08:00.375Z,43.38
2018-10-11T23:10:30.187Z,43.60
2018-10-11T23:12:59.667Z,43.49
2018-10-11T23:15:29.287Z,43.76
2018-10-11T23:17:59.178Z,44.01
2018-10-11T23:20:28.809Z,43.75
2018-10-11T23:22:58.289Z,44.12
2018-10-11T23:25:28.191Z,43.80
2018-10-11T23:27:57.994Z,43.64
2018-10-11T23:30:27.397Z,43.82
2018-10-11T23:32:57.188Z,43.73
2018-10-11T23:35:26.745Z,43.73
2018-10-11T23:37:56.309Z,43.73
2018-10-11T23:40:26.177Z,43.98
2018-10-11T23:42:55.673Z,43.82
2018-10-11T23:45:25.564Z,43.57
2018-10-11T23:47:55.272Z,43.88
2018-10-11T23:50:25.036Z,43.97
2018-10-11T23:52:54.658Z,43.63
2018-10-11T23:55:24.320Z,43.87
2018-10-11T23:57:54.211Z,43.76
